• Join FlightAware (Why Join?)
  • Login
  • US Flag 
07:47PM EST


 

Airport Tracker/Info


-or-


 

Live Flight TrackerFlight Track Log ✈ GPD11 ✈ 20-Nov-2012 ✈ GQNS / SEY - KACK

Flight Track Log - Related Links

Times and Time Zones

All times are in EST time to prevent confusion due to time zone crossing. See the GPD11 flight status page for this flight to view local times or setup timezone preferences in your user account.

Time Position Orientation Groundspeed Altitude Reporting Facility
EST Latitude Longitude Course Direction KTS MPH feet Rate Location/Type
10:35AM 15.3658 -12.4385 310° West  Level Estimated
10:36AM 15.3924 -12.4716 310° West  Level Estimated
10:37AM 15.4189 -12.5047 310° West  Level Estimated
10:38AM 15.4455 -12.5377 310° West  Level Estimated
10:39AM 15.4720 -12.5708 310° West  Level Estimated
10:40AM 15.4986 -12.6039 310° West  Level Estimated
10:41AM 15.5251 -12.6370 310° West  Level Estimated
10:42AM 15.5517 -12.6701 310° West  Level Estimated
10:43AM 15.5782 -12.7033 310° West  Level Estimated
10:44AM 15.6047 -12.7364 310° West  Level Estimated
10:45AM 15.6312 -12.7696 310° West  Level Estimated
10:46AM 15.6578 -12.8027 310° West  Level Estimated
10:47AM 15.6843 -12.8359 310° West  Level Estimated
10:48AM 15.7108 -12.8690 310° West  Level Estimated
10:49AM 15.7373 -12.9022 310° West  Level Estimated
10:50AM 15.7638 -12.9354 310° West  Level Estimated
10:51AM 15.7903 -12.9686 310° West  Level Estimated
10:52AM 15.8168 -13.0018 310° West  Level Estimated
10:53AM 15.8432 -13.0350 310° West  Level Estimated
10:54AM 15.8697 -13.0682 310° West  Level Estimated
10:55AM 15.8962 -13.1015 310° West  Level Estimated
10:56AM 15.9227 -13.1347 310° West  Level Estimated
10:57AM 15.9491 -13.1679 310° West  Level Estimated
10:58AM 15.9756 -13.2012 310° West  Level Estimated
10:59AM 16.0020 -13.2345 310° West  Level Estimated
11:00AM 16.0285 -13.2677 310° West  Level Estimated
11:01AM 16.0549 -13.3010 310° West  Level Estimated
11:02AM 16.0814 -13.3343 310° West  Level Estimated
11:03AM 16.1078 -13.3676 310° West  Level Estimated
11:04AM 16.1342 -13.4009 310° West  Level Estimated
11:05AM 16.1606 -13.4342 310° West  Level Estimated
11:06AM 16.1871 -13.4676 310° West  Level Estimated
11:07AM 16.2135 -13.5009 310° West  Level Estimated
11:08AM 16.2399 -13.5343 310° West  Level Estimated
11:09AM 16.2663 -13.5676 310° West  Level Estimated
11:10AM 16.2927 -13.6010 309° West  Level Estimated
11:11AM 16.3191 -13.6343 309° West  Level Estimated
11:12AM 16.3454 -13.6677 309° West  Level Estimated
11:13AM 16.3718 -13.7011 309° West  Level Estimated
11:14AM 16.3982 -13.7345 309° West  Level Estimated
11:15AM 16.4246 -13.7679 309° West  Level Estimated
11:16AM 16.4509 -13.8013 309° West  Level Estimated
11:17AM 16.4773 -13.8348 309° West  Level Estimated
11:18AM 16.5036 -13.8682 309° West  Level Estimated
11:19AM 16.5300 -13.9016 309° West  Level Estimated
11:20AM 16.5563 -13.9351 309° West  Level Estimated
11:21AM 16.5827 -13.9685 309° West  Level Estimated
11:22AM 16.6090 -14.0020 309° West  Level Estimated
11:23AM 16.6353 -14.0355 309° West  Level Estimated
11:24AM 16.6616 -14.0690 309° West  Level Estimated
11:25AM 16.6880 -14.1025 309° West  Level Estimated
11:26AM 16.7143 -14.1360 309° West  Level Estimated
11:27AM 16.7406 -14.1695 309° West  Level Estimated
11:28AM 16.7669 -14.2030 309° West  Level Estimated
11:29AM 16.7932 -14.2366 309° West  Level Estimated
11:30AM 16.8195 -14.2701 309° West  Level Estimated
11:31AM 16.8457 -14.3037 309° West  Level Estimated
11:32AM 16.8720 -14.3372 309° West  Level Estimated
11:33AM 16.8983 -14.3708 309° West  Level Estimated
11:34AM 16.9245 -14.4044 309° West  Level Estimated
11:35AM 16.9508 -14.4380 309° West  Level Estimated
11:36AM 16.9771 -14.4716 309° West  Level Estimated
11:37AM 17.0033 -14.5052 309° West  Level Estimated
11:38AM 17.0296 -14.5388 309° West  Level Estimated
11:39AM 17.0558 -14.5724 309° West  Level Estimated
11:40AM 17.0820 -14.6061 309° West  Level Estimated
11:41AM 17.1083 -14.6397 309° West  Level Estimated
11:42AM 17.1345 -14.6734 309° West  Level Estimated
11:43AM 17.1607 -14.7071 309° West  Level Estimated
11:44AM 17.1869 -14.7408 309° West  Level Estimated
11:45AM 17.2131 -14.7744 309° West  Level Estimated
11:46AM 17.2393 -14.8081 309° West  Level Estimated
11:47AM 17.2655 -14.8419 309° West  Level Estimated
11:48AM 17.2917 -14.8756 309° West  Level Estimated
11:49AM 17.3179 -14.9093 309° West  Level Estimated
11:50AM 17.3441 -14.9430 309° West  Level Estimated
11:51AM 17.3702 -14.9768 309° West  Level Estimated
11:52AM 17.3964 -15.0105 309° West  Level Estimated
11:53AM 17.4226 -15.0443 309° West  Level Estimated
11:54AM 17.4487 -15.0780 309° West  Level Estimated
11:55AM 17.4749 -15.1118 309° West  Level Estimated
11:56AM 17.5010 -15.1456 309° West  Level Estimated
11:57AM 17.5271 -15.1794 309° West  Level Estimated
11:58AM 17.5533 -15.2132 309° West  Level Estimated
11:59AM 17.5794 -15.2471 309° West  Level Estimated
12:00PM 17.6055 -15.2809 309° West  Level Estimated
12:01PM 17.6316 -15.3147 309° West  Level Estimated
12:02PM 17.6577 -15.3486 309° West  Level Estimated
12:03PM 17.6838 -15.3824 309° West  Level Estimated
12:04PM 17.7099 -15.4163 309° West  Level Estimated
12:05PM 17.7360 -15.4502 309° West  Level Estimated
12:06PM 17.7621 -15.4841 309° West  Level Estimated
12:07PM 17.7882 -15.5180 309° West  Level Estimated
12:08PM 17.8143 -15.5519 309° West  Level Estimated
12:09PM 17.8403 -15.5858 309° West  Level Estimated
12:10PM 17.8664 -15.6197 309° West  Level Estimated
12:11PM 17.8925 -15.6537 309° West  Level Estimated
12:12PM 17.9185 -15.6876 309° West  Level Estimated
12:13PM 17.9445 -15.7216 309° West  Level Estimated
12:14PM 17.9706 -15.7556 309° West  Level Estimated
12:15PM 17.9966 -15.7895 309° West  Level Estimated
12:16PM 18.0226 -15.8235 309° West  Level Estimated
12:17PM 18.0487 -15.8575 309° West  Level Estimated
12:18PM 18.0747 -15.8915 309° West  Level Estimated
12:19PM 18.1007 -15.9256 309° West  Level Estimated
12:20PM 18.1267 -15.9596 309° West  Level Estimated
12:21PM 18.1527 -15.9936 309° West  Level Estimated
12:22PM 18.1787 -16.0277 309° West  Level Estimated
12:23PM 18.2047 -16.0617 309° West  Level Estimated
12:24PM 18.2306 -16.0958 309° West  Level Estimated
12:25PM 18.2566 -16.1299 309° West  Level Estimated
12:26PM 18.2826 -16.1640 309° West  Level Estimated
12:27PM 18.3085 -16.1981 309° West  Level Estimated
12:28PM 18.3345 -16.2322 309° West  Level Estimated
12:29PM 18.3604 -16.2663 309° West  Level Estimated
12:30PM 18.3864 -16.3004 309° West  Level Estimated
12:31PM 18.4123 -16.3346 309° West  Level Estimated
12:32PM 18.4382 -16.3687 309° West  Level Estimated
12:33PM 18.4642 -16.4029 309° West  Level Estimated
12:34PM 18.4901 -16.4370 309° West  Level Estimated
12:35PM 18.5160 -16.4712 309° West  Level Estimated
12:36PM 18.5419 -16.5054 309° West  Level Estimated
12:37PM 18.5678 -16.5396 309° West  Level Estimated
12:38PM 18.5937 -16.5738 309° West  Level Estimated
12:39PM 18.6196 -16.6081 309° West  Level Estimated
12:40PM 18.6455 -16.6423 309° West  Level Estimated
12:41PM 18.6714 -16.6765 309° West  Level Estimated
12:42PM 18.6972 -16.7108 309° West  Level Estimated
12:43PM 18.7231 -16.7451 309° West  Level Estimated
12:44PM 18.7489 -16.7794 309° West  Level Estimated
12:45PM 18.7748 -16.8137 309° West  Level Estimated
12:46PM 18.8006 -16.8479 309° West  Level Estimated
12:47PM 18.8265 -16.8823 309° West  Level Estimated
12:48PM 18.8523 -16.9166 308° West  Level Estimated
12:49PM 18.8781 -16.9509 308° West  Level Estimated
12:50PM 18.9039 -16.9853 308° West  Level Estimated
12:51PM 18.9298 -17.0196 308° West  Level Estimated
12:52PM 18.9556 -17.0540 308° West  Level Estimated
12:53PM 18.9814 -17.0883 308° West  Level Estimated
12:54PM 19.0072 -17.1227 308° West  Level Estimated
12:55PM 19.0329 -17.1571 308° West  Level Estimated
12:56PM 19.0587 -17.1915 308° West  Level Estimated
12:57PM 19.0845 -17.2259 308° West  Level Estimated